createdAt,value
2022-08-05T00:00:56.097Z,100680.97
2022-08-05T00:03:51.977Z,100676.03
2022-08-05T00:06:32.118Z,100671.03
2022-08-05T00:09:00.925Z,100669.66
2022-08-05T00:11:30.679Z,100669.91
2022-08-05T00:14:11.990Z,100673.19
2022-08-05T00:16:52.398Z,100667.63
2022-08-05T00:19:45.651Z,100672.81
2022-08-05T00:22:26.601Z,100667.50
2022-08-05T00:25:12.783Z,100670.81
2022-08-05T00:27:42.782Z,100665.28
2022-08-05T00:30:29.205Z,100649.00
2022-08-05T00:33:04.765Z,100652.03
2022-08-05T00:35:33.439Z,100650.63
2022-08-05T00:38:01.178Z,100645.31
2022-08-05T00:40:53.235Z,100644.50
2022-08-05T00:43:21.115Z,100645.63
2022-08-05T00:46:06.522Z,100630.41
2022-08-05T00:48:34.249Z,100643.06
2022-08-05T00:51:52.029Z,100644.19
2022-08-05T00:54:28.168Z,100643.72
2022-08-05T00:57:15.904Z,100645.28
2022-08-05T00:59:48.731Z,100659.63
2022-08-05T01:02:16.652Z,100654.69
2022-08-05T01:04:44.005Z,100656.78
2022-08-05T01:07:13.848Z,100655.03
2022-08-05T01:09:41.851Z,100654.44
2022-08-05T01:12:17.952Z,100663.25
2022-08-05T01:15:18.159Z,100670.41
2022-08-05T01:18:05.057Z,100664.88
2022-08-05T01:21:25.544Z,100664.38
2022-08-05T01:24:47.366Z,100668.50
2022-08-05T01:27:32.901Z,100680.25
2022-08-05T01:30:03.633Z,100678.59
2022-08-05T01:32:51.383Z,100676.31
2022-08-05T01:35:51.722Z,100671.03
2022-08-05T01:38:34.197Z,100668.25
2022-08-05T01:41:04.954Z,100674.03
2022-08-05T01:43:52.659Z,100669.56
2022-08-05T01:46:42.867Z,100670.53
2022-08-05T01:50:00.272Z,100673.25
2022-08-05T01:52:19.088Z,100679.47
2022-08-05T01:54:52.800Z,100676.44
2022-08-05T01:58:11.257Z,100671.38
2022-08-05T02:00:21.077Z,100669.50
2022-08-05T02:03:04.074Z,100689.41
2022-08-05T02:05:35.997Z,100696.06
2022-08-05T02:08:05.362Z,100705.09
2022-08-05T02:10:59.233Z,100717.97
2022-08-05T02:13:53.183Z,100727.06
2022-08-05T02:16:52.336Z,100750.97
2022-08-05T02:19:28.679Z,100766.63
2022-08-05T02:22:25.857Z,100771.00
2022-08-05T02:25:02.365Z,100784.13
2022-08-05T02:27:59.289Z,100804.47
2022-08-05T02:30:34.293Z,100837.78
2022-08-05T02:33:02.872Z,100848.41
2022-08-05T02:35:38.081Z,100839.75
2022-08-05T02:38:35.290Z,100816.59
2022-08-05T02:41:14.805Z,100827.06
2022-08-05T02:44:05.953Z,100839.53
2022-08-05T02:46:43.981Z,100816.41
2022-08-05T02:49:40.633Z,100797.84
2022-08-05T02:52:25.964Z,100774.72
2022-08-05T02:55:11.008Z,100744.53
2022-08-05T02:58:12.112Z,100755.84
2022-08-05T03:00:55.159Z,100788.34
2022-08-05T03:03:25.593Z,100787.19
2022-08-05T03:06:56.736Z,100772.25
2022-08-05T03:08:59.556Z,100768.56
2022-08-05T03:11:57.349Z,100794.69
2022-08-05T03:14:29.178Z,100799.53
2022-08-05T03:16:59.080Z,100804.47
2022-08-05T03:19:36.292Z,100815.69
2022-08-05T03:22:04.994Z,100831.19
2022-08-05T03:24:47.081Z,100832.56
2022-08-05T03:27:19.850Z,100832.00
2022-08-05T03:30:07.779Z,100841.66
2022-08-05T03:32:37.861Z,100834.81
2022-08-05T03:35:23.602Z,100835.75
2022-08-05T03:37:50.838Z,100841.06
2022-08-05T03:40:40.984Z,100827.25
2022-08-05T03:43:59.105Z,100826.41
2022-08-05T03:46:03.210Z,100812.41
2022-08-05T03:48:35.550Z,100802.78
2022-08-05T03:52:37.938Z,100797.13
2022-08-05T03:55:50.143Z,100791.72
2022-08-05T03:57:16.668Z,100792.47
2022-08-05T03:59:55.001Z,100804.53
2022-08-05T04:02:38.646Z,100793.94
2022-08-05T04:05:34.666Z,100782.63
2022-08-05T04:08:30.220Z,100779.34
2022-08-05T04:11:04.544Z,100762.56
2022-08-05T04:13:53.334Z,100749.44
2022-08-05T04:16:24.959Z,100730.59
2022-08-05T04:19:12.706Z,100709.69
2022-08-05T04:22:09.882Z,100695.34
2022-08-05T04:24:52.936Z,100681.34
2022-08-05T04:27:41.721Z,100664.25
2022-08-05T04:30:26.534Z,100642.53
2022-08-05T04:32:53.915Z,100636.41
2022-08-05T04:35:21.021Z,100657.13
2022-08-05T04:38:02.555Z,100680.72
2022-08-05T04:40:43.732Z,100661.75
2022-08-05T04:43:16.523Z,100691.91
2022-08-05T04:46:04.024Z,100715.94
2022-08-05T04:48:32.443Z,100728.84
2022-08-05T04:51:18.049Z,100739.00
2022-08-05T04:53:45.231Z,100743.84
2022-08-05T04:56:34.913Z,100751.31
2022-08-05T04:59:23.996Z,100767.56
2022-08-05T05:02:35.135Z,100762.97
2022-08-05T05:04:38.167Z,100764.56
2022-08-05T05:07:09.397Z,100771.41
2022-08-05T05:09:39.673Z,100753.47
2022-08-05T05:12:27.437Z,100786.13
2022-08-05T05:14:54.986Z,100798.41
2022-08-05T05:17:56.949Z,100780.63
2022-08-05T05:20:28.414Z,100775.69
2022-08-05T05:23:08.163Z,100767.63
2022-08-05T05:25:40.746Z,100764.50
2022-08-05T05:28:10.048Z,100765.88
2022-08-05T05:30:38.433Z,100757.47
2022-08-05T05:33:17.292Z,100767.91
2022-08-05T05:35:46.653Z,100773.28
2022-08-05T05:38:14.431Z,100764.63
2022-08-05T05:40:49.821Z,100762.78
2022-08-05T05:43:57.319Z,100775.88
2022-08-05T05:46:31.824Z,100778.94
2022-08-05T05:49:06.498Z,100776.19
2022-08-05T05:51:50.757Z,100780.13
2022-08-05T05:54:20.862Z,100772.56
2022-08-05T05:56:48.288Z,100787.28
2022-08-05T05:59:15.770Z,100802.78
2022-08-05T06:01:57.350Z,100792.59
2022-08-05T06:04:25.399Z,100793.50
2022-08-05T06:06:52.769Z,100794.59
2022-08-05T06:09:24.657Z,100802.94
2022-08-05T06:12:01.783Z,100797.19
2022-08-05T06:14:40.124Z,100797.00
2022-08-05T06:17:24.319Z,100804.09
2022-08-05T06:19:56.807Z,100805.28
2022-08-05T06:22:29.627Z,100816.59
2022-08-05T06:25:59.223Z,100818.25
2022-08-05T06:28:11.408Z,100820.75
2022-08-05T06:30:39.161Z,100825.44
2022-08-05T06:33:09.884Z,100834.19
2022-08-05T06:36:07.428Z,100831.56
2022-08-05T06:38:36.417Z,100831.44
2022-08-05T06:41:08.007Z,100827.19
2022-08-05T06:43:58.799Z,100823.69
2022-08-05T06:46:29.706Z,100813.44
2022-08-05T06:49:15.730Z,100815.25
2022-08-05T06:51:47.496Z,100823.59
2022-08-05T06:54:33.085Z,100826.84
2022-08-05T06:57:56.624Z,100839.84
2022-08-05T07:00:09.647Z,100847.81
2022-08-05T07:02:47.518Z,100848.59
2022-08-05T07:05:23.431Z,100854.16
2022-08-05T07:07:59.069Z,100846.59
2022-08-05T07:10:30.475Z,100852.25
2022-08-05T07:13:57.063Z,100856.22
2022-08-05T07:17:56.618Z,100861.34
2022-08-05T07:19:12.081Z,100863.78
2022-08-05T07:22:00.025Z,100864.16
2022-08-05T07:24:30.674Z,100878.09
2022-08-05T07:27:17.052Z,100878.63
2022-08-05T07:30:23.975Z,100878.22
2022-08-05T07:32:53.292Z,100873.75
2022-08-05T07:36:04.134Z,100883.91
2022-08-05T07:38:34.006Z,100891.72
2022-08-05T07:42:08.921Z,100896.06
2022-08-05T07:44:18.701Z,100894.13
2022-08-05T07:46:49.803Z,100901.56
2022-08-05T07:49:43.643Z,100874.88
2022-08-05T07:52:23.945Z,100891.69
2022-08-05T07:54:53.381Z,100905.53
2022-08-05T07:57:42.133Z,100913.19
2022-08-05T08:00:11.349Z,100909.50
2022-08-05T08:03:13.265Z,100911.69
2022-08-05T08:05:28.867Z,100921.09
2022-08-05T08:07:59.523Z,100927.16
2022-08-05T08:10:48.612Z,100931.28
2022-08-05T08:13:28.951Z,100942.44
2022-08-05T08:16:35.915Z,100941.09
2022-08-05T08:19:02.047Z,100947.69
2022-08-05T08:21:29.191Z,100946.59
2022-08-05T08:24:01.379Z,100951.59
2022-08-05T08:26:32.483Z,100949.44
2022-08-05T08:29:02.334Z,100961.41
2022-08-05T08:31:52.086Z,100966.91
2022-08-05T08:34:30.158Z,100971.94
2022-08-05T08:37:18.879Z,100973.59
2022-08-05T08:39:49.520Z,100977.31
2022-08-05T08:42:50.999Z,100981.50
2022-08-05T08:45:27.068Z,100980.69
2022-08-05T08:48:12.528Z,100987.94
2022-08-05T08:51:22.770Z,100995.22
2022-08-05T08:53:45.284Z,100997.41
2022-08-05T08:56:12.593Z,101004.94
2022-08-05T08:58:44.439Z,101005.41
2022-08-05T09:01:17.023Z,101009.31
2022-08-05T09:03:55.233Z,101005.97
2022-08-05T09:06:41.598Z,101011.38
2022-08-05T09:09:08.897Z,101017.94
2022-08-05T09:12:00.173Z,101000.88
2022-08-05T09:14:58.275Z,101000.94
2022-08-05T09:17:45.664Z,101001.56
2022-08-05T09:20:36.686Z,101009.97
2022-08-05T09:23:22.217Z,101014.97
2022-08-05T09:26:00.337Z,101009.56
2022-08-05T09:28:33.179Z,101001.19
2022-08-05T09:31:23.483Z,101003.00
2022-08-05T09:34:03.237Z,101008.16
2022-08-05T09:36:54.067Z,101008.97
2022-08-05T09:39:24.478Z,101004.22
2022-08-05T09:42:17.196Z,101008.03
2022-08-05T09:46:04.682Z,101018.19
2022-08-05T09:47:56.529Z,101024.16
2022-08-05T09:50:43.966Z,101023.06
2022-08-05T09:53:22.662Z,101028.47
2022-08-05T09:56:12.903Z,101037.97
2022-08-05T09:58:41.959Z,101028.91
2022-08-05T10:01:32.372Z,101038.81
2022-08-05T10:04:10.328Z,101048.25
2022-08-05T10:06:49.776Z,101054.59
2022-08-05T10:09:45.297Z,101056.00
2022-08-05T10:12:18.478Z,101057.56
2022-08-05T10:15:25.973Z,101068.78
2022-08-05T10:18:11.149Z,101068.66
2022-08-05T10:20:44.057Z,101075.59
2022-08-05T10:23:22.112Z,101080.47
2022-08-05T10:26:13.803Z,101077.25
2022-08-05T10:28:58.466Z,101091.69
2022-08-05T10:33:01.020Z,101101.56
2022-08-05T10:34:40.900Z,101108.25
2022-08-05T10:37:08.488Z,101106.13
2022-08-05T10:40:16.704Z,101109.03
2022-08-05T10:42:51.654Z,101127.91
2022-08-05T10:45:40.131Z,101115.94
2022-08-05T10:48:29.621Z,101130.63
2022-08-05T10:51:22.275Z,101140.31
2022-08-05T10:53:54.476Z,101140.44
2022-08-05T10:56:25.886Z,101143.03
2022-08-05T10:58:53.326Z,101150.06
2022-08-05T11:01:54.675Z,101157.75
2022-08-05T11:04:26.087Z,101168.25
2022-08-05T11:07:11.905Z,101154.38
2022-08-05T11:09:46.883Z,101173.66
2022-08-05T11:12:41.202Z,101181.88
2022-08-05T11:15:58.945Z,101177.22
2022-08-05T11:18:34.628Z,101169.34
2022-08-05T11:21:11.691Z,101180.41
2022-08-05T11:24:04.649Z,101185.41
2022-08-05T11:26:49.406Z,101197.09
2022-08-05T11:29:42.834Z,101196.16
2022-08-05T11:32:30.051Z,101189.66
2022-08-05T11:36:07.521Z,101199.69
2022-08-05T11:38:45.476Z,101193.44
2022-08-05T11:42:01.358Z,101214.94
2022-08-05T11:44:52.829Z,101209.00
2022-08-05T11:47:49.582Z,101211.03
2022-08-05T11:50:17.636Z,101209.19
2022-08-05T11:53:06.398Z,101213.03
2022-08-05T11:55:37.420Z,101208.72
2022-08-05T11:58:09.240Z,101207.88
2022-08-05T12:00:41.289Z,101210.19
2022-08-05T12:03:28.625Z,101194.38
2022-08-05T12:06:06.390Z,101206.81
2022-08-05T12:08:51.276Z,101209.16
2022-08-05T12:11:40.486Z,101205.25
2022-08-05T12:14:21.478Z,101212.53
2022-08-05T12:16:54.191Z,101197.91
2022-08-05T12:20:16.782Z,101209.03
2022-08-05T12:22:32.742Z,101211.72
2022-08-05T12:25:18.374Z,101197.69
2022-08-05T12:27:52.952Z,101169.22
2022-08-05T12:30:38.933Z,101204.28
2022-08-05T12:33:27.023Z,101202.22
2022-08-05T12:35:56.246Z,101217.88
2022-08-05T12:38:23.748Z,101210.66
2022-08-05T12:40:59.407Z,101209.38
2022-08-05T12:43:26.709Z,101214.03
2022-08-05T12:46:29.801Z,101236.66
2022-08-05T12:49:25.480Z,101220.75
2022-08-05T12:52:23.911Z,101238.09
2022-08-05T12:54:55.619Z,101244.97
2022-08-05T12:58:50.751Z,101234.28
2022-08-05T13:02:03.461Z,101228.03
2022-08-05T13:03:42.526Z,101237.44
2022-08-05T13:06:15.999Z,101248.06
2022-08-05T13:09:07.585Z,101209.34
2022-08-05T13:12:01.313Z,101239.41
2022-08-05T13:15:05.066Z,101254.06
2022-08-05T13:17:41.358Z,101260.09
2022-08-05T13:20:35.298Z,101254.41
2022-08-05T13:23:16.214Z,101265.00
2022-08-05T13:25:52.120Z,101269.41
2022-08-05T13:28:27.772Z,101266.63
2022-08-05T13:30:58.590Z,101267.13
2022-08-05T13:34:22.321Z,101272.31
2022-08-05T13:36:23.286Z,101268.28
2022-08-05T13:38:54.436Z,101270.16
2022-08-05T13:41:40.122Z,101270.22
2022-08-05T13:44:07.857Z,101246.66
2022-08-05T13:47:01.977Z,101271.63
2022-08-05T13:49:32.175Z,101264.47
2022-08-05T13:52:29.056Z,101267.56
2022-08-05T13:54:57.477Z,101256.94
2022-08-05T13:57:51.463Z,101255.81
2022-08-05T14:00:26.942Z,101263.78
2022-08-05T14:02:56.650Z,101263.16
2022-08-05T14:05:47.929Z,101268.03
2022-08-05T14:08:32.620Z,101266.97
2022-08-05T14:11:18.042Z,101246.53
2022-08-05T14:14:05.892Z,101264.91
2022-08-05T14:16:33.225Z,101260.97
2022-08-05T14:19:19.626Z,101262.38
2022-08-05T14:22:09.688Z,101270.91
2022-08-05T14:24:55.669Z,101274.50
2022-08-05T14:27:22.876Z,101273.63
2022-08-05T14:29:51.423Z,101277.34
2022-08-05T14:32:27.025Z,101282.59
2022-08-05T14:34:57.028Z,101285.31
2022-08-05T14:37:42.157Z,101282.25
2022-08-05T14:40:31.012Z,101293.97
2022-08-05T14:42:58.314Z,101294.22
2022-08-05T14:45:26.266Z,101288.88
2022-08-05T14:48:02.613Z,101297.41
2022-08-05T14:50:32.143Z,101293.78
2022-08-05T14:53:00.190Z,101309.41
2022-08-05T14:55:39.306Z,101303.50
2022-08-05T14:58:19.184Z,101298.66
2022-08-05T15:00:59.182Z,101300.53
2022-08-05T15:03:45.568Z,101308.81
2022-08-05T15:06:16.429Z,101306.63
2022-08-05T15:09:03.828Z,101302.91
2022-08-05T15:11:51.651Z,101305.59
2022-08-05T15:14:48.164Z,101311.34
2022-08-05T15:17:45.657Z,101317.47
2022-08-05T15:20:19.008Z,101309.19
2022-08-05T15:22:54.144Z,101322.41
2022-08-05T15:25:50.911Z,101318.63
2022-08-05T15:28:15.528Z,101306.81
2022-08-05T15:30:45.885Z,101314.94
2022-08-05T15:34:04.282Z,101316.25
2022-08-05T15:36:24.641Z,101324.59
2022-08-05T15:40:41.800Z,101314.06
2022-08-05T15:41:59.596Z,101315.97
2022-08-05T15:44:28.159Z,101319.97
2022-08-05T15:47:16.046Z,101321.25
2022-08-05T15:49:56.836Z,101312.03
2022-08-05T15:52:54.141Z,101320.06
2022-08-05T15:55:24.686Z,101315.44
2022-08-05T15:57:52.432Z,101325.03
2022-08-05T16:00:32.712Z,101314.94
2022-08-05T16:03:10.693Z,101321.09
2022-08-05T16:05:38.950Z,101323.72
2022-08-05T16:08:24.870Z,101328.25
2022-08-05T16:10:58.745Z,101325.50
2022-08-05T16:13:45.461Z,101334.19
2022-08-05T16:16:13.946Z,101336.88
2022-08-05T16:19:07.403Z,101337.31
2022-08-05T16:21:58.545Z,101338.97
2022-08-05T16:24:51.153Z,101341.41
2022-08-05T16:27:46.897Z,101338.47
2022-08-05T16:30:25.827Z,101347.44
2022-08-05T16:32:54.580Z,101340.94
2022-08-05T16:35:27.748Z,101352.09
2022-08-05T16:38:01.915Z,101351.47
2022-08-05T16:40:48.044Z,101351.09
2022-08-05T16:43:23.477Z,101354.75
2022-08-05T16:46:23.436Z,101360.47
2022-08-05T16:48:52.198Z,101356.72
2022-08-05T16:51:20.696Z,101362.47
2022-08-05T16:54:05.896Z,101365.81
2022-08-05T16:56:41.743Z,101373.22
2022-08-05T16:59:10.075Z,101369.75
2022-08-05T17:01:54.151Z,101373.97
2022-08-05T17:04:26.645Z,101375.47
2022-08-05T17:06:55.785Z,101377.66
2022-08-05T17:09:58.277Z,101378.25
2022-08-05T17:12:51.340Z,101381.66
2022-08-05T17:15:49.114Z,101375.97
2022-08-05T17:18:19.441Z,101382.16
2022-08-05T17:21:06.246Z,101390.34
2022-08-05T17:24:03.691Z,101394.03
2022-08-05T17:26:39.060Z,101390.63
2022-08-05T17:29:13.934Z,101389.69
2022-08-05T17:31:59.713Z,101401.22
2022-08-05T17:34:30.084Z,101400.63
2022-08-05T17:37:04.687Z,101404.00
2022-08-05T17:39:51.236Z,101409.28
2022-08-05T17:42:28.928Z,101414.22
2022-08-05T17:44:57.532Z,101412.56
2022-08-05T17:47:43.359Z,101417.81
2022-08-05T17:50:11.518Z,101419.47
2022-08-05T17:53:02.326Z,101422.47
2022-08-05T17:55:37.932Z,101422.47
2022-08-05T17:58:09.855Z,101419.13
2022-08-05T18:00:47.034Z,101433.00
2022-08-05T18:03:55.953Z,101435.16
2022-08-05T18:06:12.151Z,101437.34
2022-08-05T18:08:52.450Z,101440.19
2022-08-05T18:11:23.752Z,101441.16
2022-08-05T18:14:20.559Z,101452.91
2022-08-05T18:16:54.270Z,101451.38
2022-08-05T18:19:40.609Z,101464.81
2022-08-05T18:22:18.043Z,101466.00
2022-08-05T18:25:04.494Z,101467.09
2022-08-05T18:27:31.553Z,101465.19
2022-08-05T18:29:59.452Z,101480.72
2022-08-05T18:32:27.989Z,101487.56
2022-08-05T18:34:59.635Z,101488.19
2022-08-05T18:37:34.321Z,101495.63
2022-08-05T18:40:34.275Z,101499.59
2022-08-05T18:43:16.386Z,101498.38
2022-08-05T18:46:03.394Z,101504.00
2022-08-05T18:48:33.103Z,101497.31
2022-08-05T18:52:05.933Z,101502.19
2022-08-05T18:54:31.231Z,101493.59
2022-08-05T18:57:19.561Z,101506.03
2022-08-05T19:00:01.866Z,101498.94
2022-08-05T19:02:49.295Z,101508.06
2022-08-05T19:06:12.567Z,101507.91
2022-08-05T19:08:12.287Z,101513.78
2022-08-05T19:10:42.521Z,101517.47
2022-08-05T19:13:12.457Z,101529.59
2022-08-05T19:15:59.347Z,101513.09
2022-08-05T19:18:48.870Z,101526.09
2022-08-05T19:21:17.220Z,101535.91
2022-08-05T19:24:12.210Z,101545.03
2022-08-05T19:26:43.894Z,101545.88
2022-08-05T19:29:41.305Z,101550.91
2022-08-05T19:32:11.403Z,101557.44
2022-08-05T19:34:39.106Z,101562.94
2022-08-05T19:37:06.919Z,101566.03
2022-08-05T19:39:45.859Z,101582.69
2022-08-05T19:42:35.424Z,101588.13
2022-08-05T19:45:20.088Z,101593.56
2022-08-05T19:47:55.735Z,101599.22
2022-08-05T19:50:41.693Z,101605.16
2022-08-05T19:53:09.372Z,101611.31
2022-08-05T19:56:15.203Z,101615.53
2022-08-05T19:58:54.208Z,101617.78
2022-08-05T20:01:39.737Z,101623.09
2022-08-05T20:04:07.377Z,101623.63
2022-08-05T20:06:46.486Z,101619.63
2022-08-05T20:09:14.588Z,101626.03
2022-08-05T20:11:48.028Z,101624.06
2022-08-05T20:14:23.227Z,101632.78
2022-08-05T20:17:13.093Z,101643.84
2022-08-05T20:19:50.899Z,101643.00
2022-08-05T20:22:42.134Z,101650.44
2022-08-05T20:25:13.868Z,101651.13
2022-08-05T20:27:59.313Z,101664.19
2022-08-05T20:30:27.522Z,101659.88
2022-08-05T20:32:54.797Z,101665.81
2022-08-05T20:35:21.912Z,101672.91
2022-08-05T20:38:07.714Z,101678.41
2022-08-05T20:40:55.394Z,101677.75
2022-08-05T20:43:57.447Z,101678.63
2022-08-05T20:46:33.463Z,101683.31
2022-08-05T20:49:00.697Z,101691.03
2022-08-05T20:51:53.500Z,101690.22
2022-08-05T20:54:25.749Z,101692.97
2022-08-05T20:57:43.543Z,101692.63
2022-08-05T21:00:41.176Z,101687.75
2022-08-05T21:03:20.531Z,101701.66
2022-08-05T21:05:54.670Z,101704.41
2022-08-05T21:08:28.200Z,101707.59
2022-08-05T21:11:12.600Z,101684.75
2022-08-05T21:13:55.580Z,101716.38
2022-08-05T21:16:29.391Z,101713.59
2022-08-05T21:19:00.370Z,101703.16
2022-08-05T21:21:39.619Z,101714.75
2022-08-05T21:24:30.262Z,101721.31
2022-08-05T21:26:59.757Z,101713.50
2022-08-05T21:29:48.265Z,101719.66
2022-08-05T21:32:19.819Z,101726.03
2022-08-05T21:35:17.629Z,101726.84
2022-08-05T21:37:47.156Z,101729.84
2022-08-05T21:40:14.806Z,101723.94
2022-08-05T21:42:45.229Z,101715.13
2022-08-05T21:45:24.718Z,101737.06
2022-08-05T21:47:56.874Z,101745.50
2022-08-05T21:50:54.095Z,101741.50
2022-08-05T21:53:24.837Z,101742.97
2022-08-05T21:56:17.167Z,101747.63
2022-08-05T21:58:56.884Z,101747.81
2022-08-05T22:01:43.521Z,101751.59
2022-08-05T22:04:15.177Z,101763.63
2022-08-05T22:06:42.478Z,101765.75
2022-08-05T22:09:20.764Z,101763.41
2022-08-05T22:11:51.974Z,101764.91
2022-08-05T22:14:35.140Z,101754.34
2022-08-05T22:17:23.134Z,101763.66
2022-08-05T22:19:57.266Z,101753.50
2022-08-05T22:23:16.538Z,101768.25
2022-08-05T22:26:09.684Z,101768.25
2022-08-05T22:28:56.133Z,101765.28
2022-08-05T22:31:24.318Z,101773.31
2022-08-05T22:34:25.581Z,101771.38
2022-08-05T22:36:58.416Z,101774.53
2022-08-05T22:39:44.106Z,101771.81
2022-08-05T22:42:26.047Z,101785.28
2022-08-05T22:45:12.340Z,101788.88
2022-08-05T22:47:40.433Z,101788.00
2022-08-05T22:50:26.808Z,101788.63
2022-08-05T22:52:55.317Z,101797.25
2022-08-05T22:55:57.306Z,101802.72
2022-08-05T22:58:30.453Z,101804.81
2022-08-05T23:01:18.552Z,101807.31
2022-08-05T23:03:57.809Z,101811.75
2022-08-05T23:06:45.516Z,101813.19
2022-08-05T23:09:27.213Z,101812.13
2022-08-05T23:12:23.818Z,101819.91
2022-08-05T23:14:53.478Z,101820.47
2022-08-05T23:17:24.542Z,101836.47
2022-08-05T23:20:10.414Z,101841.75
2022-08-05T23:22:47.644Z,101833.94
2022-08-05T23:25:51.956Z,101843.41
2022-08-05T23:28:07.540Z,101848.41
2022-08-05T23:30:40.017Z,101856.41
2022-08-05T23:34:02.857Z,101853.28
2022-08-05T23:36:15.737Z,101868.16
2022-08-05T23:39:01.771Z,101867.75
2022-08-05T23:41:29.208Z,101864.75
2022-08-05T23:44:05.320Z,101865.97
2022-08-05T23:46:33.853Z,101869.75
2022-08-05T23:49:16.739Z,101870.41
2022-08-05T23:52:14.054Z,101870.34
2022-08-05T23:54:50.914Z,101877.66
2022-08-05T23:57:24.248Z,101867.31
